createdAt,value
2019-01-04T00:00:56.208Z,77.97
2019-01-04T00:03:27.613Z,77.96
2019-01-04T00:05:58.799Z,78.02
2019-01-04T00:08:30.309Z,77.73
2019-01-04T00:11:01.526Z,76.89
2019-01-04T00:13:32.680Z,76.80
2019-01-04T00:16:03.683Z,76.91
2019-01-04T00:18:34.844Z,76.85
2019-01-04T00:21:06.828Z,76.21
2019-01-04T00:23:38.071Z,76.92
2019-01-04T00:26:09.225Z,76.86
2019-01-04T00:28:40.421Z,77.40
2019-01-04T00:31:11.395Z,76.96
2019-01-04T00:33:42.618Z,77.36
2019-01-04T00:36:14.146Z,77.04
2019-01-04T00:38:46.711Z,77.18
2019-01-04T00:41:18.955Z,77.81
2019-01-04T00:43:50.514Z,77.80
2019-01-04T00:46:21.665Z,77.38
2019-01-04T00:48:52.974Z,77.99
2019-01-04T00:51:24.078Z,77.72
2019-01-04T00:53:55.856Z,77.66
2019-01-04T00:57:10.894Z,76.58
2019-01-04T01:00:08.149Z,77.44
2019-01-04T01:03:37.981Z,77.73
2019-01-04T01:06:52.832Z,76.83
2019-01-04T01:10:07.269Z,77.63
2019-01-04T01:13:16.507Z,77.17
2019-01-04T01:16:18.487Z,77.62
2019-01-04T01:19:33.058Z,77.44
2019-01-04T01:22:58.967Z,76.25
2019-01-04T01:26:07.979Z,76.27
2019-01-04T01:29:16.029Z,75.67
2019-01-04T01:32:22.784Z,76.28
2019-01-04T01:35:29.752Z,75.08
2019-01-04T01:38:36.873Z,75.42
2019-01-04T01:42:01.353Z,74.87
2019-01-04T01:45:08.852Z,76.02
2019-01-04T01:47:48.698Z,76.21
2019-01-04T01:51:04.097Z,76.13
2019-01-04T01:53:47.188Z,76.87
2019-01-04T01:56:18.324Z,75.47
2019-01-04T01:58:49.620Z,74.99
2019-01-04T02:01:20.870Z,75.09
2019-01-04T02:03:52.325Z,75.70
2019-01-04T02:06:23.627Z,73.69
2019-01-04T02:08:55.043Z,74.44
2019-01-04T02:11:26.164Z,73.61
2019-01-04T02:13:57.536Z,73.81
2019-01-04T02:16:28.779Z,73.37
2019-01-04T02:19:00.068Z,72.29
2019-01-04T02:21:31.323Z,72.75
2019-01-04T02:24:02.662Z,73.12
2019-01-04T02:26:34.979Z,74.17
2019-01-04T02:29:06.256Z,72.67
2019-01-04T02:31:37.574Z,70.08
2019-01-04T02:34:08.791Z,69.41
2019-01-04T02:36:40.042Z,69.04
2019-01-04T02:39:11.045Z,69.63
2019-01-04T02:41:42.193Z,70.45
2019-01-04T02:44:13.239Z,71.08
2019-01-04T02:46:44.389Z,71.55
2019-01-04T02:49:15.524Z,69.83
2019-01-04T02:51:46.622Z,71.05
2019-01-04T02:54:18.205Z,69.69
2019-01-04T02:56:49.452Z,70.02
2019-01-04T02:59:20.572Z,70.25
2019-01-04T03:01:54.377Z,71.38
2019-01-04T03:04:25.393Z,72.38
2019-01-04T03:06:56.705Z,73.00
2019-01-04T03:09:27.793Z,72.87
2019-01-04T03:11:59.041Z,72.97
2019-01-04T03:14:31.731Z,71.87
2019-01-04T03:17:03.328Z,72.91
2019-01-04T03:19:34.706Z,72.55
2019-01-04T03:22:06.127Z,71.37
2019-01-04T03:24:37.601Z,70.95
2019-01-04T03:27:08.631Z,70.84
2019-01-04T03:29:39.980Z,71.05
2019-01-04T03:32:11.227Z,71.54
2019-01-04T03:34:42.574Z,72.66
2019-01-04T03:37:13.888Z,72.53
2019-01-04T03:39:45.038Z,73.27
2019-01-04T03:42:16.348Z,73.38
2019-01-04T03:44:47.338Z,72.84
2019-01-04T03:47:18.554Z,70.52
2019-01-04T03:49:49.816Z,71.73
2019-01-04T03:52:21.060Z,69.88
2019-01-04T03:54:52.149Z,69.85
2019-01-04T03:57:23.398Z,70.45
2019-01-04T03:59:54.742Z,70.76
2019-01-04T04:02:25.942Z,71.93
2019-01-04T04:04:57.236Z,72.46
2019-01-04T04:07:28.783Z,72.68
2019-01-04T04:10:00.221Z,73.74
2019-01-04T04:12:31.376Z,73.02
2019-01-04T04:15:02.514Z,73.06
2019-01-04T04:17:33.684Z,72.62
2019-01-04T04:20:06.559Z,73.28
2019-01-04T04:22:38.613Z,72.57
2019-01-04T04:25:09.629Z,72.50
2019-01-04T04:27:41.251Z,72.38
2019-01-04T04:30:12.433Z,72.71
2019-01-04T04:32:44.637Z,71.62
2019-01-04T04:35:16.410Z,73.00
2019-01-04T04:37:47.513Z,73.44
2019-01-04T04:40:18.757Z,72.46
2019-01-04T04:42:50.018Z,71.39
2019-01-04T04:45:21.484Z,71.06
2019-01-04T04:47:52.581Z,69.26
2019-01-04T04:50:23.816Z,70.44
2019-01-04T04:52:55.009Z,71.41
2019-01-04T04:55:26.140Z,71.90
2019-01-04T04:57:59.671Z,73.21
2019-01-04T05:00:31.003Z,72.29
2019-01-04T05:03:02.517Z,72.59
2019-01-04T05:05:34.778Z,72.31
2019-01-04T05:08:06.059Z,72.95
2019-01-04T05:10:37.204Z,73.33
2019-01-04T05:13:08.527Z,73.11
2019-01-04T05:15:40.234Z,73.60
2019-01-04T05:18:11.345Z,73.81
2019-01-04T05:20:43.159Z,73.89
2019-01-04T05:23:15.799Z,73.39
2019-01-04T05:25:46.999Z,73.88
2019-01-04T05:28:18.087Z,73.59
2019-01-04T05:30:50.960Z,73.65
2019-01-04T05:33:22.340Z,73.61
2019-01-04T05:35:54.152Z,74.27
2019-01-04T05:38:25.328Z,74.56
2019-01-04T05:40:56.661Z,75.07
2019-01-04T05:43:28.161Z,75.55
2019-01-04T05:45:59.405Z,75.40
2019-01-04T05:48:31.859Z,76.02
2019-01-04T05:51:03.070Z,76.56
2019-01-04T05:53:36.044Z,76.84
2019-01-04T05:56:07.308Z,76.13
2019-01-04T05:58:38.327Z,76.28
2019-01-04T06:01:09.897Z,76.26
2019-01-04T06:03:41.011Z,76.31
2019-01-04T06:06:12.481Z,75.87
2019-01-04T06:08:43.610Z,75.18
2019-01-04T06:11:15.778Z,74.59
2019-01-04T06:13:47.180Z,75.29
2019-01-04T06:16:18.220Z,74.87
2019-01-04T06:18:51.837Z,74.31
2019-01-04T06:21:23.057Z,74.18
2019-01-04T06:23:54.405Z,74.38
2019-01-04T06:26:26.011Z,74.62
2019-01-04T06:28:57.134Z,74.88
2019-01-04T06:31:28.368Z,74.98
2019-01-04T06:33:59.376Z,75.21
2019-01-04T06:36:30.636Z,75.41
2019-01-04T06:39:01.772Z,75.69
2019-01-04T06:41:34.011Z,76.03
2019-01-04T06:44:05.955Z,76.37
2019-01-04T06:46:58.570Z,76.85
2019-01-04T06:49:29.976Z,77.19
2019-01-04T06:52:01.035Z,77.31
2019-01-04T06:55:07.734Z,77.24
2019-01-04T06:57:39.213Z,77.29
2019-01-04T07:00:10.327Z,77.29
2019-01-04T07:02:41.591Z,77.33
2019-01-04T07:05:13.345Z,77.34
2019-01-04T07:07:44.711Z,77.41
2019-01-04T07:10:16.155Z,77.68
2019-01-04T07:12:47.683Z,77.91
2019-01-04T07:15:19.024Z,78.15
2019-01-04T07:17:50.560Z,78.34
2019-01-04T07:20:21.973Z,78.65
2019-01-04T07:22:53.421Z,78.39
2019-01-04T07:25:24.831Z,78.11
2019-01-04T07:27:56.253Z,78.27
2019-01-04T07:30:27.456Z,78.65
2019-01-04T07:32:59.255Z,78.55
2019-01-04T07:35:31.648Z,78.90
2019-01-04T07:38:03.725Z,78.93
2019-01-04T07:40:34.857Z,79.03
2019-01-04T07:43:06.262Z,79.48
2019-01-04T07:45:37.447Z,79.63
2019-01-04T07:48:08.667Z,79.55
2019-01-04T07:50:39.740Z,79.32
2019-01-04T07:53:10.867Z,79.28
2019-01-04T07:55:42.148Z,79.22
2019-01-04T07:58:13.404Z,79.17
2019-01-04T08:00:45.769Z,79.05
2019-01-04T08:03:22.163Z,79.11
2019-01-04T08:05:55.261Z,79.03
2019-01-04T08:08:26.720Z,79.27
2019-01-04T08:10:58.299Z,79.47
2019-01-04T08:13:32.139Z,79.63
2019-01-04T08:16:03.514Z,79.80
2019-01-04T08:18:35.167Z,79.52
2019-01-04T08:21:06.491Z,79.80
2019-01-04T08:23:37.869Z,79.99
2019-01-04T08:26:09.043Z,80.02
2019-01-04T08:28:40.407Z,80.22
2019-01-04T08:31:12.622Z,80.40
2019-01-04T08:33:44.768Z,80.49
2019-01-04T08:36:15.869Z,80.57
2019-01-04T08:38:47.511Z,80.23
2019-01-04T08:41:18.677Z,80.46
2019-01-04T08:43:49.812Z,80.89
2019-01-04T08:46:21.435Z,80.99
2019-01-04T08:48:53.243Z,81.23
2019-01-04T08:51:24.318Z,81.70
2019-01-04T08:54:03.857Z,81.37
2019-01-04T08:56:36.846Z,81.43
2019-01-04T08:59:07.881Z,81.19
2019-01-04T09:01:39.243Z,81.04
2019-01-04T09:04:10.327Z,81.14
2019-01-04T09:06:41.356Z,80.97
2019-01-04T09:09:14.060Z,81.07
2019-01-04T09:11:45.156Z,80.96
2019-01-04T09:14:17.308Z,81.11
2019-01-04T09:16:48.351Z,80.46
2019-01-04T09:19:19.651Z,80.69
2019-01-04T09:21:50.677Z,79.82
2019-01-04T09:24:22.025Z,79.81
2019-01-04T09:26:53.340Z,79.52
2019-01-04T09:29:24.749Z,79.40
2019-01-04T09:31:55.982Z,79.66
2019-01-04T09:34:27.420Z,79.03
2019-01-04T09:36:58.611Z,80.03
2019-01-04T09:39:30.647Z,79.00
2019-01-04T09:42:16.243Z,78.93
2019-01-04T09:44:48.079Z,79.07
2019-01-04T09:47:19.429Z,78.58
2019-01-04T09:49:51.854Z,78.63
2019-01-04T09:52:22.978Z,78.03
2019-01-04T09:54:54.294Z,77.95
2019-01-04T09:57:26.097Z,76.47
2019-01-04T09:59:57.267Z,76.59
2019-01-04T10:02:28.797Z,76.56
2019-01-04T10:05:00.430Z,76.64
2019-01-04T10:07:31.466Z,76.55
2019-01-04T10:10:03.697Z,76.45
2019-01-04T10:12:35.116Z,75.88
2019-01-04T10:15:07.400Z,75.96
2019-01-04T10:17:38.824Z,75.27
2019-01-04T10:20:10.987Z,74.89
2019-01-04T10:22:43.355Z,74.79
2019-01-04T10:25:14.691Z,74.55
2019-01-04T10:27:45.853Z,74.38
2019-01-04T10:30:35.473Z,72.79
2019-01-04T10:33:06.812Z,72.82
2019-01-04T10:35:38.349Z,73.14
2019-01-04T10:38:09.568Z,72.21
2019-01-04T10:40:41.351Z,72.45
2019-01-04T10:43:12.460Z,72.24
2019-01-04T10:45:44.785Z,72.56
2019-01-04T10:48:16.027Z,72.75
2019-01-04T10:50:48.198Z,72.37
2019-01-04T10:53:19.286Z,72.10
2019-01-04T10:55:50.532Z,73.05
2019-01-04T10:58:21.920Z,72.59
2019-01-04T11:00:53.119Z,72.37
2019-01-04T11:03:24.199Z,71.95
2019-01-04T11:05:55.440Z,71.65
2019-01-04T11:08:26.608Z,71.64
2019-01-04T11:10:57.792Z,72.23
2019-01-04T11:13:28.926Z,71.40
2019-01-04T11:16:00.205Z,71.67
2019-01-04T11:18:31.821Z,71.53
2019-01-04T11:21:06.028Z,72.03
2019-01-04T11:24:14.107Z,72.40
2019-01-04T11:26:58.509Z,73.07
2019-01-04T11:30:08.866Z,71.35
2019-01-04T11:32:53.719Z,71.66
2019-01-04T11:36:20.879Z,69.91
2019-01-04T11:39:31.352Z,70.67
2019-01-04T11:42:30.807Z,71.33
2019-01-04T11:45:26.026Z,71.43
2019-01-04T11:48:10.424Z,71.84
2019-01-04T11:50:55.086Z,73.35
2019-01-04T11:53:26.210Z,73.92
2019-01-04T11:55:57.344Z,73.53
2019-01-04T11:58:28.715Z,74.13
2019-01-04T12:01:00.444Z,74.75
2019-01-04T12:03:32.348Z,74.70
2019-01-04T12:06:05.072Z,72.87
2019-01-04T12:08:36.149Z,70.83
2019-01-04T12:11:07.738Z,69.51
2019-01-04T12:13:39.065Z,71.08
2019-01-04T12:16:10.555Z,70.61
2019-01-04T12:18:44.075Z,71.29
2019-01-04T12:21:15.542Z,72.05
2019-01-04T12:23:47.015Z,73.12
2019-01-04T12:26:18.963Z,72.34
2019-01-04T12:28:50.341Z,72.16
2019-01-04T12:31:23.272Z,71.83
2019-01-04T12:33:55.971Z,71.65
2019-01-04T12:36:27.253Z,71.44
2019-01-04T12:38:58.561Z,72.59
2019-01-04T12:41:29.699Z,74.35
2019-01-04T12:44:02.342Z,74.78
2019-01-04T12:46:33.415Z,74.94
2019-01-04T12:49:05.732Z,75.30
2019-01-04T12:51:36.938Z,74.85
2019-01-04T12:54:08.470Z,75.27
2019-01-04T12:56:39.477Z,75.42
2019-01-04T12:59:11.101Z,75.09
2019-01-04T13:01:42.591Z,75.19
2019-01-04T13:04:13.669Z,75.31
2019-01-04T13:06:44.681Z,75.06
2019-01-04T13:09:15.836Z,75.18
2019-01-04T13:11:47.238Z,75.12
2019-01-04T13:14:18.979Z,74.77
2019-01-04T13:16:50.341Z,75.00
2019-01-04T13:19:25.626Z,74.74
2019-01-04T13:21:55.408Z,74.49
2019-01-04T13:24:28.700Z,74.08
2019-01-04T13:27:00.826Z,74.49
2019-01-04T13:29:32.200Z,74.52
2019-01-04T13:32:03.933Z,75.09
2019-01-04T13:34:37.057Z,75.62
2019-01-04T13:37:09.675Z,75.62
2019-01-04T13:39:40.991Z,76.97
2019-01-04T13:42:12.100Z,77.43
2019-01-04T13:44:43.547Z,77.89
2019-01-04T13:47:16.250Z,79.63
2019-01-04T13:49:47.514Z,80.64
2019-01-04T13:52:19.684Z,81.71
2019-01-04T13:54:50.952Z,82.46
2019-01-04T13:57:22.128Z,82.84
2019-01-04T13:59:53.433Z,82.81
2019-01-04T14:02:24.535Z,83.30
2019-01-04T14:04:55.800Z,83.60
2019-01-04T14:07:27.118Z,83.39
2019-01-04T14:09:58.252Z,83.64
2019-01-04T14:12:29.658Z,83.56
2019-01-04T14:15:00.906Z,83.23
2019-01-04T14:17:32.638Z,83.30
2019-01-04T14:20:04.128Z,83.46
2019-01-04T14:22:37.528Z,83.23
2019-01-04T14:25:09.335Z,83.19
2019-01-04T14:27:40.612Z,83.19
2019-01-04T14:30:13.069Z,83.39
2019-01-04T14:32:44.120Z,83.45
2019-01-04T14:35:15.600Z,83.64
2019-01-04T14:37:46.741Z,83.40
2019-01-04T14:40:17.841Z,83.32
2019-01-04T14:42:48.849Z,84.05
2019-01-04T14:45:20.294Z,84.35
2019-01-04T14:47:51.507Z,84.51
2019-01-04T14:50:22.691Z,84.75
2019-01-04T14:52:54.034Z,85.17
2019-01-04T14:55:26.486Z,85.26
2019-01-04T14:57:58.023Z,85.48
2019-01-04T15:00:29.643Z,85.95
2019-01-04T15:03:02.312Z,85.87
2019-01-04T15:05:33.833Z,86.03
2019-01-04T15:08:06.285Z,86.33
2019-01-04T15:10:37.754Z,86.51
2019-01-04T15:13:09.021Z,86.87
2019-01-04T15:15:40.408Z,87.06
2019-01-04T15:18:11.453Z,87.36
2019-01-04T15:20:42.798Z,87.23
2019-01-04T15:23:14.075Z,87.46
2019-01-04T15:25:45.440Z,87.68
2019-01-04T15:28:16.674Z,87.92
2019-01-04T15:30:48.920Z,87.85
2019-01-04T15:33:21.114Z,87.78
2019-01-04T15:35:52.300Z,87.55
2019-01-04T15:38:23.499Z,87.76
2019-01-04T15:40:54.699Z,87.65
2019-01-04T15:43:27.117Z,87.79
2019-01-04T15:45:58.699Z,87.70
2019-01-04T15:48:30.112Z,87.77
2019-01-04T15:51:01.344Z,87.50
2019-01-04T15:53:32.649Z,87.51
2019-01-04T15:56:03.903Z,87.35
2019-01-04T15:58:35.081Z,87.42
2019-01-04T16:01:06.495Z,86.79
2019-01-04T16:03:37.824Z,87.17
2019-01-04T16:06:08.975Z,86.63
2019-01-04T16:08:40.089Z,86.37
2019-01-04T16:11:11.312Z,86.26
2019-01-04T16:13:42.960Z,85.90
2019-01-04T16:16:14.717Z,85.95
2019-01-04T16:18:46.209Z,85.80
2019-01-04T16:21:19.011Z,86.36
2019-01-04T16:23:50.522Z,86.69
2019-01-04T16:26:22.225Z,86.57
2019-01-04T16:28:53.784Z,86.43
2019-01-04T16:31:25.121Z,86.76
2019-01-04T16:33:56.585Z,87.05
2019-01-04T16:36:28.048Z,87.17
2019-01-04T16:38:59.373Z,87.82
2019-01-04T16:41:30.766Z,87.93
2019-01-04T16:44:07.263Z,87.66
2019-01-04T16:46:35.036Z,87.95
2019-01-04T16:49:06.369Z,87.95
2019-01-04T16:51:37.818Z,88.00
2019-01-04T16:54:08.803Z,88.38
2019-01-04T16:56:41.298Z,88.76
2019-01-04T16:59:13.828Z,88.62
2019-01-04T17:01:45.117Z,88.68
2019-01-04T17:04:16.397Z,88.60
2019-01-04T17:06:47.648Z,88.49
2019-01-04T17:09:19.000Z,88.54
2019-01-04T17:11:50.389Z,88.52
2019-01-04T17:14:22.273Z,88.60
2019-01-04T17:16:53.503Z,88.59
2019-01-04T17:19:24.906Z,88.59
2019-01-04T17:21:56.081Z,88.84
2019-01-04T17:24:27.483Z,88.76
2019-01-04T17:26:58.723Z,88.78
2019-01-04T17:29:29.783Z,88.87
2019-01-04T17:32:01.784Z,88.98
2019-01-04T17:34:33.010Z,88.93
2019-01-04T17:37:04.230Z,89.20
2019-01-04T17:39:35.533Z,89.20
2019-01-04T17:42:07.212Z,89.14
2019-01-04T17:44:38.575Z,89.16
2019-01-04T17:47:10.222Z,89.04
2019-01-04T17:49:41.573Z,89.22
2019-01-04T17:52:13.078Z,89.27
2019-01-04T17:54:44.439Z,89.20
2019-01-04T17:57:17.420Z,89.32
2019-01-04T17:59:48.573Z,89.72
2019-01-04T18:02:20.892Z,89.81
2019-01-04T18:04:53.435Z,90.03
2019-01-04T18:07:25.016Z,90.01
2019-01-04T18:09:56.162Z,89.77
2019-01-04T18:12:28.107Z,89.79
2019-01-04T18:14:59.454Z,89.61
2019-01-04T18:17:30.669Z,89.63
2019-01-04T18:20:01.889Z,89.54
2019-01-04T18:22:33.335Z,89.57
2019-01-04T18:25:04.958Z,89.32
2019-01-04T18:27:36.137Z,89.25
2019-01-04T18:30:08.917Z,89.34
2019-01-04T18:32:40.223Z,89.18
2019-01-04T18:35:11.470Z,89.12
2019-01-04T18:37:43.038Z,89.07
2019-01-04T18:40:14.031Z,88.98
2019-01-04T18:42:45.398Z,89.05
2019-01-04T18:45:16.680Z,88.95
2019-01-04T18:47:48.041Z,89.11
2019-01-04T18:50:22.542Z,89.13
2019-01-04T18:52:53.688Z,89.17
2019-01-04T18:55:24.807Z,89.38
2019-01-04T18:57:56.894Z,89.58
2019-01-04T19:00:28.049Z,89.64
2019-01-04T19:02:59.178Z,89.59
2019-01-04T19:05:30.296Z,89.68
2019-01-04T19:08:02.441Z,89.59
2019-01-04T19:10:33.716Z,89.66
2019-01-04T19:13:06.058Z,89.56
2019-01-04T19:15:37.168Z,89.66
2019-01-04T19:18:08.343Z,89.62
2019-01-04T19:20:39.368Z,89.60
2019-01-04T19:23:10.657Z,89.58
2019-01-04T19:25:41.882Z,90.76
2019-01-04T19:28:13.361Z,89.92
2019-01-04T19:30:44.558Z,89.74
2019-01-04T19:33:15.911Z,89.95
2019-01-04T19:35:47.322Z,89.97
2019-01-04T19:38:18.697Z,90.09
2019-01-04T19:40:52.425Z,90.27
2019-01-04T19:43:23.799Z,90.35
2019-01-04T19:45:55.403Z,90.44
2019-01-04T19:48:26.857Z,90.63
2019-01-04T19:50:58.068Z,90.69
2019-01-04T19:53:29.297Z,90.52
2019-01-04T19:56:00.457Z,90.51
2019-01-04T19:58:31.463Z,90.62
2019-01-04T20:01:02.697Z,90.74
2019-01-04T20:03:33.937Z,91.04
2019-01-04T20:07:08.925Z,90.89
2019-01-04T20:10:51.574Z,91.06
2019-01-04T20:14:23.450Z,91.07
2019-01-04T20:17:11.844Z,91.23
2019-01-04T20:20:12.654Z,91.31
2019-01-04T20:23:01.723Z,91.14
2019-01-04T20:25:50.574Z,91.08
2019-01-04T20:28:40.280Z,90.98
2019-01-04T20:31:42.369Z,91.00
2019-01-04T20:34:31.541Z,90.88
2019-01-04T20:37:39.532Z,91.13
2019-01-04T20:40:35.321Z,91.06
2019-01-04T20:43:34.351Z,91.15
2019-01-04T20:46:23.801Z,91.09
2019-01-04T20:49:26.538Z,91.31
2019-01-04T20:52:12.277Z,91.22
2019-01-04T20:55:17.720Z,91.37
2019-01-04T20:58:07.876Z,91.40
2019-01-04T21:00:56.868Z,91.36
2019-01-04T21:03:47.531Z,91.65
2019-01-04T21:06:33.430Z,91.51
2019-01-04T21:09:23.301Z,91.61
2019-01-04T21:12:14.443Z,91.43
2019-01-04T21:15:02.688Z,91.55
2019-01-04T21:18:03.980Z,91.63
2019-01-04T21:20:51.017Z,91.73
2019-01-04T21:23:32.515Z,91.95
2019-01-04T21:26:23.799Z,91.88
2019-01-04T21:29:12.486Z,92.04
2019-01-04T21:32:11.667Z,92.10
2019-01-04T21:35:11.119Z,92.16
2019-01-04T21:38:00.418Z,92.03
2019-01-04T21:40:49.391Z,92.27
2019-01-04T21:43:44.552Z,92.36
2019-01-04T21:46:33.523Z,92.45
2019-01-04T21:49:24.508Z,92.49
2019-01-04T21:52:14.581Z,92.43
2019-01-04T21:55:10.726Z,92.39
2019-01-04T21:57:59.346Z,92.27
2019-01-04T22:00:48.378Z,92.25
2019-01-04T22:03:50.606Z,92.28
2019-01-04T22:06:39.423Z,92.21
2019-01-04T22:09:31.029Z,92.06
2019-01-04T22:12:24.321Z,92.13
2019-01-04T22:15:13.667Z,92.29
2019-01-04T22:18:01.218Z,92.31
2019-01-04T22:20:54.075Z,92.50
2019-01-04T22:23:59.411Z,92.49
2019-01-04T22:26:52.329Z,92.54
2019-01-04T22:29:43.277Z,92.43
2019-01-04T22:32:39.452Z,92.36
2019-01-04T22:35:31.665Z,92.44
2019-01-04T22:38:14.322Z,92.48
2019-01-04T22:41:03.398Z,92.48
2019-01-04T22:44:06.091Z,92.53
2019-01-04T22:46:56.719Z,92.68
2019-01-04T22:49:49.928Z,92.66
2019-01-04T22:52:38.993Z,92.69
2019-01-04T22:55:28.408Z,92.57
2019-01-04T22:58:21.573Z,92.95
2019-01-04T23:01:10.998Z,92.73
2019-01-04T23:03:55.589Z,92.74
2019-01-04T23:06:44.919Z,92.99
2019-01-04T23:09:37.912Z,93.11
2019-01-04T23:12:31.154Z,93.22
2019-01-04T23:15:20.066Z,93.47
2019-01-04T23:18:09.266Z,93.42
2019-01-04T23:21:09.651Z,93.54
2019-01-04T23:23:58.775Z,93.58
2019-01-04T23:27:04.517Z,93.78
2019-01-04T23:29:58.649Z,93.94
2019-01-04T23:32:47.606Z,93.92
2019-01-04T23:35:46.892Z,93.79
2019-01-04T23:38:35.532Z,93.86
2019-01-04T23:41:25.063Z,93.84
2019-01-04T23:44:21.428Z,93.91
2019-01-04T23:47:12.334Z,93.78
2019-01-04T23:50:01.533Z,93.92
2019-01-04T23:52:51.655Z,94.04
2019-01-04T23:55:38.432Z,94.04
2019-01-04T23:58:27.733Z,93.94
